Terminal Aerodrome Forecast
Issued by NWS Pueblo, CO

Home | Current Version | Previous Version | Text Only | Print | Product List | Glossary On
Versions: 1 2 3 4 5 6 7 8 9 10 11 12 13 14 15 16 17 18 19 20 21 22 23 24 25 26
000
FTUS45 KPUB 211137
TAFALS
TAF
KALS 211137Z 2112/2212 VRB06KT P6SM SCT100 SCT150
     FM212000 09008KT P6SM SCT080 BKN150
     FM212200 33012KT P6SM VCTS BKN090CB BKN150 PROB30 2123/2201
      VRB20G35KT -TSRA BKN080CB
     FM220200 02014KT P6SM VCSH BKN100
     FM220600 36006KT P6SM SCT100 BKN150=

USA.gov is the U.S. government's official web portal to all federal, state and local government web resources and services.